Time;durP1;ratioP1;P1;durP2;ratioP2;P2;SDS_P1;SDS_P2;PMS_P1;PMS_P2;Temp;Humidity;BMP_temperature;BMP_pressure;BME280_temperature;BME280_humidity;BME280_pressure;Samples;Min_cycle;Max_cycle;Signal;HPM_P1;HPM_P2
2024/01/01 05:06:22;;;;;;;;;113.50;103.00;;;;;;;;6027673;39;9999994;-57
2024/01/01 05:29:44;;;;;;;;;103.50;87.25;;;;;;;;6494074;31;9090;-61
2024/01/01 05:35:46;;;;;;;;;106.67;91.67;;;;;;;;6487873;39;8923;-57
2024/01/01 05:41:48;;;;;;;;;96.33;70.67;;;;;;;;6490923;39;8916;-57
2024/01/01 05:47:50;;;;;;;;;110.50;93.00;;;;;;;;6489854;39;8901;-57
2024/01/01 05:53:58;;;;;;;;;108.50;96.75;;;;;;;;6490443;39;8929;-57
2024/01/01 06:00:01;;;;;;;;;106.50;83.25;;;;;;;;6490594;39;8872;-59
2024/01/01 06:06:10;;;;;;;;;107.75;93.50;;;;;;;;6491326;46;8917;-57
2024/01/01 06:12:12;;;;;;;;;103.33;89.67;;;;;;;;6493068;39;9464;-57
2024/01/01 06:18:14;;;;;;;;;108.67;86.67;;;;;;;;6492750;39;8904;-57
2024/01/01 06:24:16;;;;;;;;;104.67;80.00;;;;;;;;6491716;39;9097;-57
2024/01/01 06:30:21;;;;;;;;;108.33;86.00;;;;;;;;6492778;46;8865;-57
2024/01/01 06:36:23;;;;;;;;;94.00;73.33;;;;;;;;6491035;39;8865;-57
2024/01/01 06:42:26;;;;;;;;;101.67;81.00;;;;;;;;6491675;39;8845;-58
2024/01/01 06:48:31;;;;;;;;;96.33;75.67;;;;;;;;6492003;31;8958;-58
2024/01/01 06:54:33;;;;;;;;;97.00;72.00;;;;;;;;6491969;46;8845;-56
2024/01/01 07:00:39;;;;;;;;;89.00;73.00;;;;;;;;6493742;31;8951;-57
2024/01/01 07:06:42;;;;;;;;;101.00;85.67;;;;;;;;6491751;39;9078;-57
2024/01/01 07:12:47;;;;;;;;;101.00;76.67;;;;;;;;6492290;46;8848;-57
2024/01/01 07:18:49;;;;;;;;;108.67;82.00;;;;;;;;6491812;39;9181;-56
2024/01/01 07:24:51;;;;;;;;;102.33;88.33;;;;;;;;6491772;46;9019;-58
2024/01/01 07:30:53;;;;;;;;;89.33;70.00;;;;;;;;6490583;46;10104;-59
2024/01/01 07:36:57;;;;;;;;;93.67;72.67;;;;;;;;6489003;39;8962;-57
2024/01/01 07:43:00;;;;;;;;;97.00;73.33;;;;;;;;6489928;39;8962;-57
2024/01/01 07:49:05;;;;;;;;;86.67;66.33;;;;;;;;6490178;46;8892;-57
2024/01/01 07:55:09;;;;;;;;;95.33;74.00;;;;;;;;6490004;39;8864;-55
2024/01/01 08:01:16;;;;;;;;;87.00;69.00;;;;;;;;6490683;39;8845;-56
2024/01/01 08:07:19;;;;;;;;;81.67;66.67;;;;;;;;6489769;39;8945;-56
2024/01/01 08:13:21;;;;;;;;;92.33;71.00;;;;;;;;6490050;46;9032;-57
2024/01/01 08:19:23;;;;;;;;;92.33;72.67;;;;;;;;6490075;39;8864;-57
2024/01/01 08:25:25;;;;;;;;;90.00;72.00;;;;;;;;6488615;46;8966;-57
2024/01/01 08:31:28;;;;;;;;;97.67;72.33;;;;;;;;6487635;46;8836;-57
2024/01/01 08:37:30;;;;;;;;;95.33;74.00;;;;;;;;6488786;39;8987;-58
2024/01/01 08:43:32;;;;;;;;;92.67;69.33;;;;;;;;6488779;46;8888;-59
2024/01/01 08:49:35;;;;;;;;;87.00;67.33;;;;;;;;6487820;47;8900;-57
2024/01/01 08:55:38;;;;;;;;;81.50;63.50;;;;;;;;6488119;47;8900;-57
2024/01/01 09:01:45;;;;;;;;;71.25;58.50;;;;;;;;6488296;39;8864;-57
2024/01/01 09:07:48;;;;;;;;;76.00;61.25;;;;;;;;6488073;47;8912;-58
2024/01/01 09:13:50;;;;;;;;;79.00;60.00;;;;;;;;6488859;39;8840;-57
2024/01/01 09:19:53;;;;;;;;;78.00;62.75;;;;;;;;6488166;47;8928;-58
